createdAt,value
2019-04-14T00:01:26.653Z,13.97
2019-04-14T00:04:22.664Z,11.23
2019-04-14T00:06:53.150Z,12.73
2019-04-14T00:09:25.040Z,11.77
2019-04-14T00:11:56.942Z,10.63
2019-04-14T00:14:27.267Z,11.97
2019-04-14T00:16:57.545Z,12.70
2019-04-14T00:19:28.378Z,13.47
2019-04-14T00:22:03.059Z,13.27
2019-04-14T00:24:33.619Z,11.40
2019-04-14T00:27:04.701Z,12.27
2019-04-14T00:29:35.136Z,12.78
2019-04-14T00:32:07.334Z,14.40
2019-04-14T00:34:57.190Z,13.40
2019-04-14T00:37:59.371Z,12.00
2019-04-14T00:40:34.983Z,13.40
2019-04-14T00:43:24.459Z,13.43
2019-04-14T00:46:04.192Z,11.07
2019-04-14T00:48:34.714Z,11.30
2019-04-14T00:51:04.986Z,11.05
2019-04-14T00:53:36.039Z,11.37
2019-04-14T00:56:06.451Z,10.73
2019-04-14T00:58:36.867Z,12.70
2019-04-14T01:01:07.268Z,12.37
2019-04-14T01:03:37.935Z,11.87
2019-04-14T01:06:08.194Z,12.87
2019-04-14T01:08:38.409Z,13.93
2019-04-14T01:11:09.586Z,11.67
2019-04-14T01:13:39.925Z,11.23
2019-04-14T01:16:16.614Z,11.63
2019-04-14T01:18:43.000Z,11.33
2019-04-14T01:21:15.234Z,11.03
2019-04-14T01:23:45.613Z,12.33
2019-04-14T01:26:16.049Z,9.43
2019-04-14T01:28:46.384Z,14.03
2019-04-14T01:31:16.709Z,13.03
2019-04-14T01:33:47.077Z,10.50
2019-04-14T01:36:19.167Z,11.57
2019-04-14T01:38:49.819Z,11.70
2019-04-14T01:41:21.657Z,13.13
2019-04-14T01:43:52.118Z,12.20
2019-04-14T01:46:26.540Z,12.97
2019-04-14T01:48:54.767Z,12.40
2019-04-14T01:51:50.623Z,13.10
2019-04-14T01:54:38.903Z,11.87
2019-04-14T01:57:28.480Z,13.17
2019-04-14T02:00:18.502Z,12.20
2019-04-14T02:02:48.991Z,14.03
2019-04-14T02:05:19.274Z,10.73
2019-04-14T02:07:49.548Z,13.63
2019-04-14T02:10:19.802Z,11.07
2019-04-14T02:12:50.131Z,12.73
2019-04-14T02:15:20.367Z,10.57
2019-04-14T02:19:37.455Z,10.20
2019-04-14T02:22:09.457Z,11.60
2019-04-14T02:24:39.786Z,13.43
2019-04-14T02:27:10.457Z,11.20
2019-04-14T02:29:40.856Z,13.67
2019-04-14T02:35:14.557Z,13.90
2019-04-14T02:37:44.781Z,12.33
2019-04-14T02:40:20.234Z,12.07
2019-04-14T02:45:19.320Z,11.10
2019-04-14T02:50:17.741Z,11.20
2019-04-14T02:52:52.066Z,11.53
2019-04-14T02:55:23.510Z,10.67
2019-04-14T02:58:04.182Z,12.20
2019-04-14T03:00:35.265Z,12.73
2019-04-14T03:03:06.441Z,11.10
2019-04-14T03:05:37.657Z,12.37
2019-04-14T03:08:11.245Z,12.00
2019-04-14T03:10:40.232Z,12.95
2019-04-14T03:13:13.345Z,13.23
2019-04-14T03:15:53.784Z,11.73
2019-04-14T03:24:33.748Z,13.67
2019-04-14T03:27:11.477Z,13.37
2019-04-14T03:32:32.551Z,12.80
2019-04-14T03:34:56.745Z,13.57
2019-04-14T03:37:37.793Z,12.93
2019-04-14T03:39:55.199Z,14.47
2019-04-14T03:42:28.885Z,13.33
2019-04-14T03:44:56.391Z,12.77
2019-04-14T03:50:00.024Z,12.43
2019-04-14T03:52:43.619Z,14.37
2019-04-14T03:54:52.272Z,12.50
2019-04-14T03:57:08.302Z,13.13
2019-04-14T03:59:39.252Z,12.50
2019-04-14T04:02:09.724Z,13.37
2019-04-14T04:04:40.197Z,13.23
2019-04-14T04:11:08.405Z,12.33
2019-04-14T04:13:39.059Z,13.87
2019-04-14T04:16:29.055Z,12.30
2019-04-14T04:19:10.490Z,12.70
2019-04-14T04:21:55.687Z,11.03
2019-04-14T04:24:45.763Z,11.50
2019-04-14T04:27:26.572Z,15.05
2019-04-14T04:30:16.531Z,13.93
2019-04-14T04:33:22.034Z,13.60
2019-04-14T04:36:01.110Z,15.17
2019-04-14T04:38:51.004Z,12.17
2019-04-14T04:41:23.165Z,14.20
2019-04-14T04:43:53.910Z,12.80
2019-04-14T04:46:24.566Z,12.98
2019-04-14T04:49:05.343Z,14.43
2019-04-14T04:51:27.092Z,15.23
2019-04-14T04:53:57.366Z,14.87
2019-04-14T04:56:29.730Z,14.23
2019-04-14T04:59:01.079Z,14.10
2019-04-14T05:01:34.003Z,13.80
2019-04-14T05:04:04.595Z,13.13
2019-04-14T05:07:09.936Z,14.40
2019-04-14T05:10:09.537Z,16.53
2019-04-14T05:13:05.880Z,15.98
2019-04-14T05:15:53.391Z,14.47
2019-04-14T05:18:24.965Z,14.60
2019-04-14T05:20:55.532Z,17.77
2019-04-14T05:23:25.770Z,18.63
2019-04-14T05:25:56.553Z,17.20
2019-04-14T05:28:26.862Z,16.70
2019-04-14T05:30:58.865Z,17.63
2019-04-14T05:33:29.780Z,16.07
2019-04-14T05:36:00.019Z,17.93
2019-04-14T05:38:32.113Z,17.10
2019-04-14T05:41:02.713Z,18.32
2019-04-14T05:43:41.467Z,15.00
2019-04-14T05:46:05.545Z,15.13
2019-04-14T05:48:35.893Z,15.67
2019-04-14T05:51:06.441Z,16.30
2019-04-14T05:53:37.225Z,16.63
2019-04-14T05:56:07.974Z,17.33
2019-04-14T05:58:38.440Z,16.63
2019-04-14T06:01:09.715Z,14.43
2019-04-14T06:03:40.787Z,14.33
2019-04-14T06:06:11.690Z,18.87
2019-04-14T06:08:41.973Z,16.47
2019-04-14T06:11:16.763Z,15.17
2019-04-14T06:13:53.655Z,16.43
2019-04-14T06:16:24.031Z,14.57
2019-04-14T06:18:54.568Z,15.83
2019-04-14T06:21:25.190Z,16.20
2019-04-14T06:23:55.541Z,14.83
2019-04-14T06:26:26.176Z,14.47
2019-04-14T06:28:56.532Z,15.27
2019-04-14T06:31:48.577Z,15.90
2019-04-14T06:34:26.787Z,15.27
2019-04-14T06:39:51.825Z,15.23
2019-04-14T06:42:22.587Z,18.07
2019-04-14T06:44:53.308Z,13.40
2019-04-14T06:47:24.100Z,16.83
2019-04-14T06:53:59.322Z,14.80
2019-04-14T06:56:29.791Z,14.03
2019-04-14T06:59:00.934Z,14.77
2019-04-14T07:01:32.138Z,16.00
2019-04-14T07:04:04.229Z,17.63
2019-04-14T07:06:34.541Z,15.13
2019-04-14T07:09:06.238Z,19.53
2019-04-14T07:11:36.626Z,14.87
2019-04-14T07:14:06.965Z,15.43
2019-04-14T07:16:38.481Z,14.00
2019-04-14T07:19:09.675Z,13.50
2019-04-14T07:21:40.315Z,12.53
2019-04-14T07:24:10.758Z,13.47
2019-04-14T07:26:41.033Z,14.40
2019-04-14T07:29:11.315Z,14.98
2019-04-14T07:31:54.959Z,13.20
2019-04-14T07:34:42.036Z,15.40
2019-04-14T07:37:37.522Z,14.77
2019-04-14T07:40:30.665Z,15.27
2019-04-14T07:43:08.036Z,12.90
2019-04-14T07:45:57.306Z,14.07
2019-04-14T07:48:42.280Z,15.10
2019-04-14T07:51:21.778Z,12.30
2019-04-14T07:54:09.957Z,13.47
2019-04-14T07:56:59.225Z,12.73
2019-04-14T07:59:51.658Z,11.53
2019-04-14T08:02:37.135Z,14.43
2019-04-14T08:05:19.412Z,13.40
2019-04-14T08:07:50.978Z,12.70
2019-04-14T08:10:21.206Z,12.77
2019-04-14T08:12:51.414Z,15.07
2019-04-14T08:15:22.010Z,12.50
2019-04-14T08:17:52.348Z,12.83
2019-04-14T08:20:27.836Z,12.87
2019-04-14T08:22:57.662Z,13.17
2019-04-14T08:25:27.001Z,10.80
2019-04-14T08:27:57.322Z,12.77
2019-04-14T08:30:28.056Z,13.57
2019-04-14T08:32:58.798Z,12.53
2019-04-14T08:35:29.096Z,15.00
2019-04-14T08:37:59.471Z,12.07
2019-04-14T08:40:30.483Z,13.23
2019-04-14T08:43:18.412Z,11.83
2019-04-14T08:46:10.955Z,14.27
2019-04-14T08:48:50.827Z,11.50
2019-04-14T08:51:46.772Z,10.27
2019-04-14T08:54:39.698Z,9.60
2019-04-14T08:57:23.802Z,12.80
2019-04-14T09:00:05.395Z,13.40
2019-04-14T09:02:54.933Z,11.57
2019-04-14T09:05:59.874Z,12.50
2019-04-14T09:08:34.624Z,10.50
2019-04-14T09:11:06.159Z,12.87
2019-04-14T09:13:36.792Z,10.87
2019-04-14T09:16:11.443Z,10.57
2019-04-14T09:18:41.742Z,9.33
2019-04-14T09:21:12.405Z,9.17
2019-04-14T09:23:43.009Z,11.23
2019-04-14T09:26:13.333Z,13.30
2019-04-14T09:28:43.623Z,10.87
2019-04-14T09:31:13.909Z,10.87
2019-04-14T09:33:44.153Z,9.97
2019-04-14T09:36:14.527Z,10.53
2019-04-14T09:38:44.748Z,11.40
2019-04-14T09:41:15.389Z,10.43
2019-04-14T09:43:46.004Z,11.77
2019-04-14T09:46:16.285Z,9.50
2019-04-14T09:48:46.584Z,10.03
2019-04-14T09:51:17.576Z,11.17
2019-04-14T09:53:48.711Z,9.83
2019-04-14T09:56:19.646Z,9.73
2019-04-14T09:58:49.923Z,9.93
2019-04-14T10:01:20.901Z,11.17
2019-04-14T10:03:51.544Z,9.27
2019-04-14T10:06:22.176Z,10.27
2019-04-14T10:08:52.575Z,10.13
2019-04-14T10:11:22.975Z,10.70
2019-04-14T10:13:53.216Z,10.87
2019-04-14T10:16:23.789Z,9.70
2019-04-14T10:18:54.066Z,9.07
2019-04-14T10:21:24.394Z,10.27
2019-04-14T10:23:54.609Z,9.23
2019-04-14T10:26:24.893Z,10.40
2019-04-14T10:28:55.541Z,10.27
2019-04-14T10:31:25.872Z,11.27
2019-04-14T10:33:56.396Z,11.30
2019-04-14T10:36:27.093Z,7.33
2019-04-14T10:38:57.421Z,10.43
2019-04-14T10:41:28.518Z,9.77
2019-04-14T10:43:59.315Z,9.27
2019-04-14T10:46:29.993Z,9.83
2019-04-14T10:49:00.360Z,12.03
2019-04-14T10:51:33.880Z,10.73
2019-04-14T10:54:02.961Z,11.17
2019-04-14T10:56:33.296Z,12.90
2019-04-14T10:59:03.658Z,12.30
2019-04-14T11:01:34.024Z,11.07
2019-04-14T11:04:04.633Z,11.03
2019-04-14T11:06:41.571Z,11.10
2019-04-14T11:09:15.558Z,10.53
2019-04-14T11:11:46.378Z,10.40
2019-04-14T11:14:17.361Z,9.77
2019-04-14T11:16:47.764Z,9.23
2019-04-14T11:19:18.503Z,11.10
2019-04-14T11:21:48.865Z,10.27
2019-04-14T11:24:19.467Z,10.03
2019-04-14T11:26:50.005Z,9.83
2019-04-14T11:29:20.257Z,10.03
2019-04-14T11:32:08.736Z,11.37
2019-04-14T11:35:10.596Z,9.93
2019-04-14T11:37:58.765Z,11.60
2019-04-14T11:40:34.781Z,11.23
2019-04-14T11:43:05.666Z,11.13
2019-04-14T11:45:36.329Z,12.23
2019-04-14T11:48:06.611Z,12.37
2019-04-14T11:50:36.946Z,11.83
2019-04-14T11:53:07.256Z,11.73
2019-04-14T11:55:39.040Z,11.93
2019-04-14T11:58:09.330Z,10.17
2019-04-14T12:01:01.409Z,10.87
2019-04-14T12:03:50.445Z,11.73
2019-04-14T12:06:39.661Z,11.67
2019-04-14T12:09:15.097Z,10.70
2019-04-14T12:11:45.446Z,12.00
2019-04-14T12:14:15.684Z,10.80
2019-04-14T12:16:46.348Z,10.97
2019-04-14T12:19:16.653Z,11.17
2019-04-14T12:21:46.972Z,11.93
2019-04-14T12:24:17.642Z,9.17
2019-04-14T12:26:49.046Z,11.13
2019-04-14T12:29:19.266Z,10.03
2019-04-14T12:31:51.117Z,11.47
2019-04-14T12:34:21.372Z,7.17
2019-04-14T12:36:51.601Z,8.53
2019-04-14T12:39:24.422Z,7.17
2019-04-14T12:42:00.467Z,9.37
2019-04-14T12:44:49.691Z,9.33
2019-04-14T12:47:58.350Z,8.50
2019-04-14T12:50:35.425Z,9.57
2019-04-14T12:53:06.157Z,8.93
2019-04-14T12:55:36.706Z,7.30
2019-04-14T12:58:07.622Z,8.23
2019-04-14T13:00:44.628Z,8.47
2019-04-14T13:03:22.469Z,9.67
2019-04-14T13:05:52.737Z,8.53
2019-04-14T13:08:22.946Z,9.50
2019-04-14T13:10:53.367Z,8.03
2019-04-14T13:13:23.636Z,8.47
2019-04-14T13:15:53.870Z,8.27
2019-04-14T13:18:24.168Z,6.53
2019-04-14T13:20:54.419Z,9.73
2019-04-14T13:23:25.144Z,9.97
2019-04-14T13:25:55.381Z,9.70
2019-04-14T13:28:25.678Z,8.43
2019-04-14T13:30:56.084Z,9.17
2019-04-14T13:33:26.411Z,9.07
2019-04-14T13:35:56.869Z,11.00
2019-04-14T13:38:27.236Z,9.33
2019-04-14T13:40:58.138Z,9.17
2019-04-14T13:43:28.462Z,9.00
2019-04-14T13:45:59.973Z,10.30
2019-04-14T13:48:30.390Z,7.80
2019-04-14T13:51:01.089Z,10.70
2019-04-14T13:53:31.684Z,9.03
2019-04-14T13:56:02.266Z,7.57
2019-04-14T13:58:32.597Z,9.23
2019-04-14T14:01:03.304Z,9.27
2019-04-14T14:03:34.933Z,7.63
2019-04-14T14:06:05.310Z,6.77
2019-04-14T14:08:35.881Z,8.13
2019-04-14T14:11:24.561Z,8.13
2019-04-14T14:13:59.889Z,9.87
2019-04-14T14:16:53.243Z,10.70
2019-04-14T14:19:43.896Z,9.30
2019-04-14T14:22:22.959Z,9.53
2019-04-14T14:25:03.462Z,7.77
2019-04-14T14:27:33.958Z,8.30
2019-04-14T14:30:05.149Z,8.97
2019-04-14T14:32:36.887Z,6.90
2019-04-14T14:35:07.854Z,7.60
2019-04-14T14:37:38.156Z,7.70
2019-04-14T14:40:09.044Z,8.73
2019-04-14T14:42:39.972Z,7.17
2019-04-14T14:45:17.971Z,8.30
2019-04-14T14:47:55.928Z,8.17
2019-04-14T14:50:34.355Z,8.43
2019-04-14T14:53:11.902Z,9.17
2019-04-14T14:55:37.339Z,9.60
2019-04-14T14:58:07.704Z,9.03
2019-04-14T15:00:38.127Z,9.20
2019-04-14T15:03:08.415Z,8.67
2019-04-14T15:05:38.737Z,8.67
2019-04-14T15:08:10.185Z,9.07
2019-04-14T15:10:40.398Z,10.27
2019-04-14T15:13:11.837Z,11.10
2019-04-14T15:15:43.730Z,9.13
2019-04-14T15:18:14.130Z,9.33
2019-04-14T15:20:44.764Z,10.30
2019-04-14T15:23:24.816Z,9.37
2019-04-14T15:25:47.143Z,8.57
2019-04-14T15:28:17.381Z,9.07
2019-04-14T15:30:47.617Z,8.48
2019-04-14T15:33:18.881Z,8.77
2019-04-14T15:35:49.495Z,8.50
2019-04-14T15:38:20.962Z,10.00
2019-04-14T15:40:51.259Z,11.57
2019-04-14T15:43:21.620Z,13.03
2019-04-14T15:45:51.897Z,9.43
2019-04-14T15:48:22.255Z,10.43
2019-04-14T15:50:52.886Z,10.17
2019-04-14T15:53:23.184Z,9.83
2019-04-14T15:55:53.868Z,9.37
2019-04-14T15:58:58.311Z,9.77
2019-04-14T16:01:50.508Z,10.82
2019-04-14T16:04:42.856Z,8.90
2019-04-14T16:07:27.752Z,9.47
2019-04-14T16:10:12.530Z,11.43
2019-04-14T16:12:49.590Z,10.17
2019-04-14T16:15:40.516Z,11.73
2019-04-14T16:18:25.844Z,11.77
2019-04-14T16:20:56.884Z,10.20
2019-04-14T16:23:27.142Z,9.73
2019-04-14T16:26:19.227Z,8.37
2019-04-14T16:29:03.619Z,10.63
2019-04-14T16:31:56.859Z,9.63
2019-04-14T16:34:33.577Z,9.63
2019-04-14T16:37:04.170Z,10.93
2019-04-14T16:39:34.575Z,10.40
2019-04-14T16:42:04.952Z,11.63
2019-04-14T16:44:35.650Z,10.77
2019-04-14T16:47:06.378Z,9.37
2019-04-14T16:49:36.607Z,10.97
2019-04-14T16:52:30.065Z,10.07
2019-04-14T16:55:16.427Z,10.20
2019-04-14T16:57:52.792Z,10.87
2019-04-14T17:00:30.955Z,11.37
2019-04-14T17:03:01.278Z,9.10
2019-04-14T17:05:31.663Z,10.20
2019-04-14T17:08:01.985Z,11.77
2019-04-14T17:10:33.367Z,12.47
2019-04-14T17:13:04.263Z,9.30
2019-04-14T17:15:53.457Z,11.40
2019-04-14T17:18:36.589Z,11.00
2019-04-14T17:21:24.693Z,10.63
2019-04-14T17:24:02.515Z,9.17
2019-04-14T17:26:55.641Z,10.97
2019-04-14T17:29:31.826Z,10.50
2019-04-14T17:32:26.948Z,10.97
2019-04-14T17:35:07.267Z,14.67
2019-04-14T17:37:42.327Z,14.00
2019-04-14T17:40:37.856Z,12.27
2019-04-14T17:43:19.286Z,12.27
2019-04-14T17:46:09.672Z,12.60
2019-04-14T17:48:56.288Z,10.73
2019-04-14T17:51:47.706Z,12.70
2019-04-14T17:54:36.941Z,13.33
2019-04-14T17:57:29.362Z,11.17
2019-04-14T18:00:18.549Z,10.50
2019-04-14T18:02:57.283Z,12.80
2019-04-14T18:05:38.480Z,13.97
2019-04-14T18:08:17.677Z,12.95
2019-04-14T18:11:13.078Z,11.27
2019-04-14T18:13:54.784Z,10.30
2019-04-14T18:16:34.612Z,11.43
2019-04-14T18:19:30.728Z,12.47
2019-04-14T18:22:01.011Z,10.47
2019-04-14T18:24:41.542Z,13.50
2019-04-14T18:27:03.334Z,12.07
2019-04-14T18:30:01.941Z,12.97
2019-04-14T18:32:42.263Z,12.87
2019-04-14T18:35:21.924Z,10.80
2019-04-14T18:38:23.316Z,10.57
2019-04-14T18:40:57.914Z,11.80
2019-04-14T18:43:45.051Z,11.90
2019-04-14T18:46:40.418Z,14.07
2019-04-14T18:49:22.803Z,12.90
2019-04-14T18:52:13.371Z,12.63
2019-04-14T18:55:11.712Z,11.03
2019-04-14T18:57:50.306Z,11.23
2019-04-14T19:00:34.563Z,11.60
2019-04-14T19:03:04.837Z,13.63
2019-04-14T19:05:35.100Z,11.57
2019-04-14T19:08:05.449Z,12.90
2019-04-14T19:10:35.805Z,11.50
2019-04-14T19:13:15.855Z,12.03
2019-04-14T19:16:08.231Z,13.17
2019-04-14T19:18:57.830Z,12.03
2019-04-14T19:21:29.823Z,13.73
2019-04-14T19:24:00.334Z,10.80
2019-04-14T19:26:30.616Z,13.60
2019-04-14T19:29:00.992Z,12.03
2019-04-14T19:31:31.853Z,12.27
2019-04-14T19:34:02.447Z,11.77
2019-04-14T19:36:32.982Z,12.47
2019-04-14T19:39:05.080Z,12.37
2019-04-14T19:41:36.954Z,10.87
2019-04-14T19:44:07.745Z,10.70
2019-04-14T19:46:38.348Z,11.30
2019-04-14T19:49:09.002Z,9.63
2019-04-14T19:51:39.712Z,12.93
2019-04-14T19:54:10.230Z,11.83
2019-04-14T19:56:41.031Z,12.23
2019-04-14T19:59:11.773Z,11.93
2019-04-14T20:01:42.445Z,10.90
2019-04-14T20:04:13.106Z,11.17
2019-04-14T20:06:44.371Z,10.07
2019-04-14T20:09:14.659Z,13.20
2019-04-14T20:11:45.716Z,13.33
2019-04-14T20:14:16.033Z,11.90
2019-04-14T20:16:53.422Z,11.47
2019-04-14T20:19:49.477Z,11.93
2019-04-14T20:22:28.719Z,12.03
2019-04-14T20:25:07.984Z,12.97
2019-04-14T20:27:43.165Z,12.63
2019-04-14T20:30:20.161Z,11.37
2019-04-14T20:32:50.874Z,11.60
2019-04-14T20:35:21.267Z,11.30
2019-04-14T20:37:51.944Z,12.77
2019-04-14T20:40:22.436Z,11.77
2019-04-14T20:45:54.639Z,12.47
2019-04-14T20:48:24.918Z,12.27
2019-04-14T20:50:56.262Z,10.40
2019-04-14T20:53:42.413Z,13.53
2019-04-14T20:56:13.118Z,12.97
2019-04-14T20:58:43.746Z,13.07
2019-04-14T21:01:15.015Z,13.57
2019-04-14T21:03:53.206Z,12.27
2019-04-14T21:06:48.829Z,11.57
2019-04-14T21:09:37.084Z,11.73
2019-04-14T21:12:25.092Z,11.90
2019-04-14T21:15:29.434Z,13.37
2019-04-14T21:18:16.808Z,12.80
2019-04-14T21:21:08.615Z,13.33
2019-04-14T21:23:44.973Z,15.13
2019-04-14T21:26:43.616Z,13.77
2019-04-14T21:29:39.816Z,10.75
2019-04-14T21:32:23.763Z,10.90
2019-04-14T21:35:07.870Z,13.17
2019-04-14T21:38:06.098Z,13.90
2019-04-14T21:40:58.610Z,15.20
2019-04-14T21:43:28.860Z,13.17
2019-04-14T21:45:59.190Z,11.80
2019-04-14T21:48:29.752Z,11.80
2019-04-14T21:51:00.054Z,13.67
2019-04-14T21:53:30.350Z,13.63
2019-04-14T21:56:12.890Z,11.00
2019-04-14T21:58:48.232Z,10.13
2019-04-14T22:01:56.257Z,13.33
2019-04-14T22:04:44.741Z,10.07
2019-04-14T22:07:35.686Z,12.30
2019-04-14T22:10:17.835Z,11.00
2019-04-14T22:12:48.743Z,11.67
2019-04-14T22:15:19.047Z,13.10
2019-04-14T22:17:49.332Z,10.47
2019-04-14T22:20:19.931Z,11.13
2019-04-14T22:22:50.177Z,11.77
2019-04-14T22:25:20.453Z,11.67
2019-04-14T22:27:50.724Z,12.20
2019-04-14T22:30:20.992Z,13.67
2019-04-14T22:32:51.628Z,13.30
2019-04-14T22:35:22.162Z,12.93
2019-04-14T22:37:52.526Z,12.77
2019-04-14T22:40:22.737Z,14.47
2019-04-14T22:42:52.983Z,13.83
2019-04-14T22:45:23.872Z,16.13
2019-04-14T22:47:54.138Z,14.00
2019-04-14T22:50:24.676Z,14.77
2019-04-14T22:52:54.899Z,13.87
2019-04-14T22:55:25.273Z,14.07
2019-04-14T22:57:55.546Z,12.63
2019-04-14T23:00:45.010Z,11.37
2019-04-14T23:03:26.813Z,13.50
2019-04-14T23:06:09.385Z,12.75
2019-04-14T23:08:44.467Z,15.27
2019-04-14T23:11:45.972Z,13.33
2019-04-14T23:14:35.195Z,13.43
2019-04-14T23:17:20.823Z,14.33
2019-04-14T23:19:57.142Z,12.87
2019-04-14T23:22:41.605Z,13.50
2019-04-14T23:25:12.172Z,11.93
2019-04-14T23:27:42.676Z,15.13
2019-04-14T23:30:13.075Z,13.17
2019-04-14T23:32:43.351Z,13.73
2019-04-14T23:35:13.881Z,13.30
2019-04-14T23:37:44.106Z,11.93
2019-04-14T23:40:14.399Z,12.23
2019-04-14T23:42:44.730Z,11.37
2019-04-14T23:45:15.595Z,11.33
2019-04-14T23:47:45.900Z,13.53
2019-04-14T23:50:16.194Z,12.53
2019-04-14T23:52:47.484Z,13.17
2019-04-14T23:55:17.792Z,11.90
2019-04-14T23:57:48.107Z,13.13
